Preview of NWS' New Version of Forecast
This preview is not operational and should not be used for support decisions.

Terminal Aerodrome Forecast (TAF)

Issued by National Weather Service (NWS)

                            
000
FTUS42 KMFL 191720
TAFMIA
TAF
KMIA 191720Z 1918/2024 10015KT P6SM SCT035
     FM200000 10010KT P6SM SCT040
     FM201400 13015KT P6SM SCT035=